createdAt,value
2018-11-28T00:02:02.596Z,99402.84
2018-11-28T00:05:10.038Z,99398.66
2018-11-28T00:08:15.320Z,99405.86
2018-11-28T00:11:20.723Z,99403.12
2018-11-28T00:14:26.004Z,99396.45
2018-11-28T00:17:31.407Z,99402.66
2018-11-28T00:20:36.809Z,99401.62
2018-11-28T00:23:42.091Z,99401.11
2018-11-28T00:26:47.492Z,99394.77
2018-11-28T00:29:52.773Z,99392.64
2018-11-28T00:32:58.420Z,99393.91
2018-11-28T00:36:03.819Z,99387.12
2018-11-28T00:39:09.102Z,99393.28
2018-11-28T00:42:14.503Z,99389.66
2018-11-28T00:45:21.706Z,99391.64
2018-11-28T00:48:26.987Z,99386.63
2018-11-28T00:51:32.389Z,99387.16
2018-11-28T00:54:37.672Z,99386.03
2018-11-28T00:57:43.192Z,99378.43
2018-11-28T01:00:48.714Z,99382.45
2018-11-28T01:03:54.117Z,99373.39
2018-11-28T01:07:01.919Z,99376.11
2018-11-28T01:10:10.920Z,99373.77
2018-11-28T01:13:16.323Z,99381.34
2018-11-28T01:16:21.724Z,99382.42
2018-11-28T01:19:27.246Z,99374.66
2018-11-28T01:22:32.769Z,99370.45
2018-11-28T01:25:38.051Z,99372.08
2018-11-28T01:28:46.455Z,99372.80
2018-11-28T01:31:48.976Z,99374.81
2018-11-28T01:34:54.377Z,99375.14
2018-11-28T01:37:59.779Z,99380.59
2018-11-28T01:41:05.422Z,99378.05
2018-11-28T01:44:10.702Z,99392.34
2018-11-28T01:47:16.105Z,99389.73
2018-11-28T01:50:21.867Z,99390.06
2018-11-28T01:53:27.269Z,99383.94
2018-11-28T01:56:32.795Z,99377.64
2018-11-28T01:59:45.994Z,99384.36
2018-11-28T02:02:56.437Z,99391.08
2018-11-28T02:06:01.717Z,99388.77
2018-11-28T02:09:08.199Z,99387.83
2018-11-28T02:12:13.601Z,99388.54
2018-11-28T02:15:20.085Z,99390.33
2018-11-28T02:18:25.725Z,99383.76
2018-11-28T02:21:31.128Z,99381.03
2018-11-28T02:24:36.414Z,99382.07
2018-11-28T02:27:42.179Z,99381.36
2018-11-28T02:30:47.574Z,99368.86
2018-11-28T02:33:52.873Z,99370.55
2018-11-28T02:36:58.257Z,99364.91
2018-11-28T02:40:04.140Z,99364.91
2018-11-28T02:43:09.541Z,99367.45
2018-11-28T02:46:26.223Z,99360.21
2018-11-28T02:49:31.505Z,99362.89
2018-11-28T02:52:36.908Z,99365.80
2018-11-28T02:55:42.310Z,99369.05
2018-11-28T02:58:47.595Z,99374.17
2018-11-28T03:01:53.235Z,99372.56
2018-11-28T03:04:58.517Z,99371.30
2018-11-28T03:08:04.040Z,99363.35
2018-11-28T03:11:17.240Z,99357.52
2018-11-28T03:14:22.645Z,99356.02
2018-11-28T03:17:28.045Z,99366.75
2018-11-28T03:20:33.446Z,99373.19
2018-11-28T03:23:38.848Z,99376.70
2018-11-28T03:26:44.251Z,99367.97
2018-11-28T03:29:49.651Z,99368.53
2018-11-28T03:32:55.056Z,99370.44
2018-11-28T03:36:13.778Z,99370.45
2018-11-28T03:39:19.058Z,99365.55
2018-11-28T03:42:24.463Z,99372.00
2018-11-28T03:45:29.863Z,99369.84
2018-11-28T03:48:35.144Z,99371.67
2018-11-28T03:51:40.547Z,99372.00
2018-11-28T03:54:45.829Z,99379.62
2018-11-28T03:57:51.231Z,99375.14
2018-11-28T04:00:56.633Z,99372.42
2018-11-28T04:04:01.917Z,99377.16
2018-11-28T04:07:07.318Z,99376.27
2018-11-28T04:10:13.801Z,99379.36
2018-11-28T04:13:19.207Z,99377.94
2018-11-28T04:16:24.604Z,99374.47
2018-11-28T04:19:30.125Z,99377.12
2018-11-28T04:22:50.769Z,99382.34
2018-11-28T04:25:56.050Z,99390.33
2018-11-28T04:29:01.455Z,99386.15
2018-11-28T04:32:06.853Z,99389.77
2018-11-28T04:35:13.575Z,99392.97
2018-11-28T04:38:18.978Z,99397.48
2018-11-28T04:41:24.262Z,99398.42
2018-11-28T04:44:29.662Z,99392.41
2018-11-28T04:47:35.185Z,99388.41
2018-11-28T04:50:40.706Z,99386.58
2018-11-28T04:53:45.988Z,99386.02
2018-11-28T04:56:51.389Z,99385.50
2018-11-28T04:59:57.152Z,99382.59
2018-11-28T05:03:02.433Z,99386.44
2018-11-28T05:06:08.076Z,99381.65
2018-11-28T05:09:13.358Z,99386.86
2018-11-28T05:12:18.777Z,99386.72
2018-11-28T05:15:26.461Z,99391.93
2018-11-28T05:18:31.844Z,99385.48
2018-11-28T05:21:37.246Z,99385.66
2018-11-28T05:24:43.007Z,99381.67
2018-11-28T05:27:49.256Z,99384.02
2018-11-28T05:30:54.772Z,99376.79
2018-11-28T05:34:00.173Z,99371.90
2018-11-28T05:37:06.295Z,99376.27
2018-11-28T05:40:27.418Z,99379.88
2018-11-28T05:43:32.939Z,99388.61
2018-11-28T05:46:38.463Z,99387.67
2018-11-28T05:49:44.345Z,99392.97
2018-11-28T05:52:50.353Z,99384.28
2018-11-28T05:55:56.107Z,99391.89
2018-11-28T05:59:01.634Z,99394.58
2018-11-28T06:02:07.273Z,99395.29
2018-11-28T06:05:27.558Z,99392.53
2018-11-28T06:08:33.200Z,99391.78
2018-11-28T06:11:40.638Z,99393.58
2018-11-28T06:14:46.283Z,99396.30
2018-11-28T06:17:52.162Z,99398.50
2018-11-28T06:21:18.685Z,99407.45
2018-11-28T06:24:24.208Z,99405.81
2018-11-28T06:27:29.848Z,99399.84
2018-11-28T06:30:36.095Z,99402.16
2018-11-28T06:33:41.617Z,99408.27
2018-11-28T06:36:47.262Z,99408.34
2018-11-28T06:39:52.779Z,99408.00
2018-11-28T06:42:58.664Z,99417.44
2018-11-28T06:46:04.792Z,99419.27
2018-11-28T06:49:10.429Z,99425.42
2018-11-28T06:52:15.948Z,99423.94
2018-11-28T06:55:21.954Z,99421.55
2018-11-28T06:58:29.751Z,99422.27
2018-11-28T07:01:35.752Z,99416.81
2018-11-28T07:04:43.315Z,99422.08
2018-11-28T07:07:51.004Z,99413.91
2018-11-28T07:10:58.328Z,99419.69
2018-11-28T07:14:04.082Z,99414.62
2018-11-28T07:17:09.607Z,99422.23
2018-11-28T07:20:23.532Z,99421.33
2018-11-28T07:23:29.295Z,99429.16
2018-11-28T07:26:36.012Z,99429.16
2018-11-28T07:29:42.854Z,99430.95
2018-11-28T07:32:51.139Z,99437.83
2018-11-28T07:35:57.378Z,99440.95
2018-11-28T07:39:03.740Z,99453.58
2018-11-28T07:42:19.114Z,99457.50
2018-11-28T07:45:24.983Z,99454.41
2018-11-28T07:48:32.783Z,99461.19
2018-11-28T08:09:57.405Z,99471.64
2018-11-28T08:13:02.382Z,99469.05
2018-11-28T08:16:09.223Z,99474.45
2018-11-28T08:19:16.224Z,99470.66
2018-11-28T08:22:21.268Z,99474.36
2018-11-28T08:25:27.999Z,99478.13
2018-11-28T08:28:36.133Z,99478.27
2018-11-28T08:31:41.503Z,99486.78
2018-11-28T08:34:46.510Z,99480.77
2018-11-28T08:37:51.515Z,99477.09
2018-11-28T08:40:58.492Z,99478.30
2018-11-28T08:44:03.720Z,99475.37
2018-11-28T08:47:08.749Z,99474.86
2018-11-28T08:50:15.139Z,99474.11
2018-11-28T08:53:20.336Z,99472.60
2018-11-28T08:56:25.378Z,99468.78
2018-11-28T08:59:30.406Z,99469.78
2018-11-28T09:02:35.464Z,99478.11
2018-11-28T09:05:40.532Z,99474.63
2018-11-28T09:08:47.236Z,99465.80
2018-11-28T09:11:52.289Z,99466.05
2018-11-28T09:14:57.321Z,99464.92
2018-11-28T09:18:04.555Z,99464.65
2018-11-28T09:21:09.617Z,99459.11
2018-11-28T09:24:14.754Z,99463.17
2018-11-28T09:27:19.801Z,99470.66
2018-11-28T09:30:25.001Z,99475.08
2018-11-28T09:33:30.133Z,99471.55
2018-11-28T09:36:37.728Z,99475.90
2018-11-28T09:39:45.101Z,99475.84
2018-11-28T09:42:51.243Z,99470.27
2018-11-28T09:45:56.337Z,99478.22
2018-11-28T09:49:02.474Z,99478.60
2018-11-28T09:52:07.520Z,99480.92
2018-11-28T09:55:13.905Z,99479.45
2018-11-28T09:58:20.605Z,99470.67
2018-11-28T10:01:26.734Z,99473.92
2018-11-28T10:04:33.258Z,99468.77
2018-11-28T10:07:39.451Z,99465.91
2018-11-28T10:10:44.480Z,99458.66
2018-11-28T10:13:52.176Z,99460.62
2018-11-28T10:16:59.254Z,99462.37
2018-11-28T10:20:04.979Z,99462.20
2018-11-28T10:23:11.920Z,99463.30
2018-11-28T10:26:16.972Z,99455.25
2018-11-28T10:29:23.664Z,99460.80
2018-11-28T10:32:29.908Z,99459.41
2018-11-28T10:35:35.867Z,99458.55
2018-11-28T10:38:44.739Z,99452.84
2018-11-28T10:41:49.896Z,99447.33
2018-11-28T10:44:54.965Z,99439.79
2018-11-28T10:48:00.057Z,99438.73
2018-11-28T10:51:05.869Z,99436.30
2018-11-28T10:54:11.899Z,99432.19
2018-11-28T10:57:16.946Z,99429.70
2018-11-28T11:00:29.860Z,99428.96
2018-11-28T11:03:40.844Z,99431.19
2018-11-28T11:06:56.423Z,99429.26
2018-11-28T11:10:07.120Z,99426.95
2018-11-28T11:13:18.015Z,99425.30
2018-11-28T11:16:28.884Z,99426.54
2018-11-28T11:19:33.931Z,99426.95
2018-11-28T11:22:38.876Z,99421.30
2018-11-28T11:25:44.058Z,99424.39
2018-11-28T11:28:49.063Z,99426.30
2018-11-28T11:31:55.837Z,99414.08
2018-11-28T11:35:00.828Z,99417.48
2018-11-28T11:38:05.915Z,99415.66
2018-11-28T11:41:12.573Z,99407.72
2018-11-28T11:44:19.435Z,99406.55
2018-11-28T11:47:24.488Z,99402.72
2018-11-28T11:50:31.156Z,99413.70
2018-11-28T11:53:36.139Z,99412.89
2018-11-28T11:56:41.190Z,99413.14
2018-11-28T11:59:46.247Z,99409.22
2018-11-28T12:03:11.672Z,99403.45
2018-11-28T12:06:18.675Z,99391.04
2018-11-28T12:09:27.210Z,99389.03
2018-11-28T12:12:34.172Z,99382.59
2018-11-28T12:15:39.213Z,99386.58
2018-11-28T12:18:46.060Z,99380.38
2018-11-28T12:22:58.355Z,99388.40
2018-11-28T12:26:18.375Z,99392.30
2018-11-28T12:29:23.455Z,99383.64
2018-11-28T12:32:28.497Z,99385.21
2018-11-28T12:35:33.546Z,99386.23
2018-11-28T12:38:38.617Z,99387.47
2018-11-28T12:41:45.361Z,99384.97
2018-11-28T12:44:52.243Z,99380.16
2018-11-28T12:47:57.312Z,99381.09
2018-11-28T12:51:02.361Z,99385.91
2018-11-28T12:54:07.377Z,99385.30
2018-11-28T12:57:14.216Z,99393.50
2018-11-28T13:00:23.073Z,99399.02
2018-11-28T13:03:29.801Z,99392.48
2018-11-28T13:06:38.687Z,99390.27
2018-11-28T13:09:44.233Z,99385.73
2018-11-28T13:12:59.730Z,99380.20
2018-11-28T13:16:05.312Z,99380.30
2018-11-28T13:19:10.645Z,99370.27
2018-11-28T13:22:20.907Z,99369.66
2018-11-28T13:25:28.121Z,99371.80
2018-11-28T13:28:35.131Z,99367.58
2018-11-28T13:31:41.912Z,99362.06
2018-11-28T13:34:52.564Z,99365.03
2018-11-28T13:38:01.066Z,99357.70
2018-11-28T13:41:07.943Z,99357.76
2018-11-28T13:44:12.944Z,99358.41
2018-11-28T13:47:18.013Z,99352.77
2018-11-28T13:50:25.047Z,99344.67
2018-11-28T13:53:32.030Z,99351.33
2018-11-28T13:59:47.585Z,99337.92
2018-11-28T14:02:55.810Z,99346.93
2018-11-28T14:06:02.856Z,99344.51
2018-11-28T14:09:09.962Z,99344.17
2018-11-28T14:12:16.916Z,99347.66
2018-11-28T14:15:24.066Z,99340.97
2018-11-28T14:18:32.010Z,99341.61
2018-11-28T14:21:44.673Z,99343.35
2018-11-28T14:24:51.486Z,99348.40
2018-11-28T14:27:58.738Z,99358.36
2018-11-28T14:31:06.025Z,99359.79
2018-11-28T14:34:15.469Z,99359.55
2018-11-28T14:37:24.455Z,99349.48
2018-11-28T14:40:29.697Z,99357.12
2018-11-28T14:43:34.904Z,99355.22
2018-11-28T14:46:41.840Z,99357.98
2018-11-28T14:49:46.847Z,99355.64
2018-11-28T14:52:54.501Z,99353.25
2018-11-28T14:56:01.172Z,99354.05
2018-11-28T14:59:06.288Z,99348.38
2018-11-28T15:02:13.346Z,99347.56
2018-11-28T15:05:23.857Z,99356.41
2018-11-28T15:08:29.435Z,99356.86
2018-11-28T15:11:39.140Z,99342.80
2018-11-28T15:14:46.184Z,99342.94
2018-11-28T15:17:51.381Z,99339.66
2018-11-28T15:20:59.727Z,99341.15
2018-11-28T15:24:06.747Z,99334.69
2018-11-28T15:27:13.771Z,99333.03
2018-11-28T15:30:20.821Z,99337.95
2018-11-28T15:33:25.924Z,99338.36
2018-11-28T15:36:30.980Z,99336.53
2018-11-28T15:39:36.059Z,99331.42
2018-11-28T15:42:41.116Z,99330.35
2018-11-28T15:45:46.162Z,99328.91
2018-11-28T15:48:51.222Z,99328.32
2018-11-28T15:51:56.268Z,99328.98
2018-11-28T15:55:01.389Z,99325.16
2018-11-28T15:58:06.480Z,99326.20
2018-11-28T16:01:11.623Z,99335.87
2018-11-28T16:04:16.633Z,99326.51
2018-11-28T16:07:21.664Z,99335.86
2018-11-28T16:10:32.366Z,99337.58
2018-11-28T16:13:37.435Z,99333.51
2018-11-28T16:16:49.967Z,99335.73
2018-11-28T16:19:54.953Z,99341.48
2018-11-28T16:23:04.126Z,99343.73
2018-11-28T16:26:05.351Z,99339.78
2018-11-28T16:29:10.555Z,99342.58
2018-11-28T16:32:15.540Z,99352.98
2018-11-28T16:35:20.584Z,99345.72
2018-11-28T16:38:33.231Z,99349.42
2018-11-28T16:41:38.149Z,99348.05
2018-11-28T16:44:43.103Z,99353.70
2018-11-28T16:47:48.329Z,99357.94
2018-11-28T16:50:53.298Z,99358.73
2018-11-28T16:53:58.258Z,99360.41
2018-11-28T16:57:03.233Z,99351.28
2018-11-28T17:00:11.814Z,99359.52
2018-11-28T17:03:16.807Z,99358.14
2018-11-28T17:06:21.773Z,99355.69
2018-11-28T17:09:26.763Z,99366.73
2018-11-28T17:12:31.719Z,99363.30
2018-11-28T17:15:36.776Z,99364.10
2018-11-28T17:18:41.747Z,99363.89
2018-11-28T17:21:46.764Z,99363.33
2018-11-28T17:24:51.778Z,99361.34
2018-11-28T17:27:56.744Z,99357.38
2018-11-28T17:31:01.727Z,99359.30
2018-11-28T17:34:06.735Z,99363.84
2018-11-28T17:37:42.536Z,99360.48
2018-11-28T17:40:47.636Z,99359.05
2018-11-28T17:43:52.659Z,99350.77
2018-11-28T17:46:57.674Z,99350.88
2018-11-28T17:50:03.487Z,99355.05
2018-11-28T17:53:11.789Z,99358.48
2018-11-28T17:56:16.803Z,99360.61
2018-11-28T17:59:21.776Z,99361.40
2018-11-28T18:02:26.870Z,99352.24
2018-11-28T18:05:31.875Z,99364.56
2018-11-28T18:08:36.868Z,99368.63
2018-11-28T18:11:41.847Z,99363.23
2018-11-28T18:14:46.965Z,99361.96
2018-11-28T18:17:53.379Z,99364.73
2018-11-28T18:20:58.359Z,99360.06
2018-11-28T18:24:03.419Z,99355.23
2018-11-28T18:27:08.387Z,99355.88
2018-11-28T18:30:13.486Z,99351.20
2018-11-28T18:33:18.520Z,99348.31
2018-11-28T18:36:23.507Z,99356.44
2018-11-28T18:39:28.454Z,99356.05
2018-11-28T18:42:33.360Z,99355.88
2018-11-28T18:45:40.386Z,99349.81
2018-11-28T18:48:45.315Z,99350.19
2018-11-28T18:51:50.405Z,99359.63
2018-11-28T18:54:55.399Z,99363.29
2018-11-28T18:58:00.479Z,99361.80
2018-11-28T19:01:05.540Z,99363.75
2018-11-28T19:04:11.108Z,99368.47
2018-11-28T19:07:16.419Z,99363.25
2018-11-28T19:10:26.343Z,99367.58
2018-11-28T19:13:29.235Z,99369.53
2018-11-28T19:19:46.024Z,99367.16
2018-11-28T19:22:51.888Z,99374.36
2018-11-28T19:25:56.836Z,99373.30
2018-11-28T19:29:03.025Z,99366.42
2018-11-28T19:32:08.144Z,99372.95
2018-11-28T19:35:13.304Z,99372.34
2018-11-28T19:38:18.300Z,99380.55
2018-11-28T19:41:24.938Z,99387.23
2018-11-28T19:44:29.994Z,99382.55
2018-11-28T19:47:35.136Z,99378.00
2018-11-28T19:50:40.703Z,99373.26
2018-11-28T19:53:45.608Z,99365.78
2018-11-28T19:56:50.565Z,99371.28
2018-11-28T19:59:55.524Z,99371.83
2018-11-28T20:03:00.554Z,99364.19
2018-11-28T20:06:05.553Z,99365.05
2018-11-28T20:09:16.725Z,99359.36
2018-11-28T20:12:21.667Z,99361.23
2018-11-28T20:15:27.953Z,99352.99
2018-11-28T20:18:33.207Z,99350.83
2018-11-28T20:21:38.156Z,99361.23
2018-11-28T20:24:43.071Z,99360.05
2018-11-28T20:27:52.582Z,99368.11
2018-11-28T20:30:57.507Z,99358.60
2018-11-28T20:34:02.407Z,99365.80
2018-11-28T20:37:07.735Z,99366.09
2018-11-28T20:40:14.067Z,99369.41
2018-11-28T20:43:19.059Z,99367.58
2018-11-28T20:46:24.096Z,99365.72
2018-11-28T20:49:29.047Z,99358.75
2018-11-28T20:52:34.558Z,99360.19
2018-11-28T20:55:39.505Z,99354.17
2018-11-28T20:58:44.512Z,99353.53
2018-11-28T21:01:49.618Z,99346.15
2018-11-28T21:04:54.619Z,99338.17
2018-11-28T21:07:59.598Z,99331.41
2018-11-28T21:11:05.671Z,99326.82
2018-11-28T21:14:10.607Z,99322.02
2018-11-28T21:17:15.591Z,99330.14
2018-11-28T21:20:22.004Z,99326.67
2018-11-28T21:23:26.968Z,99327.01
2018-11-28T21:26:31.911Z,99315.91
2018-11-28T21:29:36.898Z,99307.75
2018-11-28T21:32:42.264Z,99315.91
2018-11-28T21:35:48.782Z,99327.64
2018-11-28T21:38:53.735Z,99327.84
2018-11-28T21:41:58.654Z,99327.57
2018-11-28T21:45:05.272Z,99337.66
2018-11-28T21:48:10.215Z,99340.89
2018-11-28T21:51:15.122Z,99327.89
2018-11-28T21:54:20.035Z,99326.20
2018-11-28T21:57:24.994Z,99333.42
2018-11-28T22:00:29.903Z,99332.67
2018-11-28T22:03:34.830Z,99339.03
2018-11-28T22:06:39.863Z,99343.02
2018-11-28T22:09:44.909Z,99342.92
2018-11-28T22:12:49.971Z,99339.95
2018-11-28T22:15:54.960Z,99334.80
2018-11-28T22:18:59.887Z,99323.11
2018-11-28T22:22:39.504Z,99320.80
2018-11-28T22:25:44.471Z,99323.41
2018-11-28T22:28:49.471Z,99334.83
2018-11-28T22:31:54.891Z,99329.16
2018-11-28T22:34:59.888Z,99324.16
2018-11-28T22:38:05.274Z,99324.50
2018-11-28T22:41:10.267Z,99322.20
2018-11-28T22:44:15.318Z,99317.55
2018-11-28T22:47:20.311Z,99310.78
2018-11-28T22:50:25.267Z,99317.11
2018-11-28T22:53:30.218Z,99321.92
2018-11-28T22:56:35.147Z,99319.28
2018-11-28T23:02:58.826Z,99312.82
2018-11-28T23:06:04.147Z,99307.31
2018-11-28T23:09:09.059Z,99314.40
2018-11-28T23:12:13.959Z,99306.86
2018-11-28T23:15:18.870Z,99306.78
2018-11-28T23:18:23.797Z,99311.14
2018-11-28T23:21:39.559Z,99318.91
2018-11-28T23:24:44.460Z,99318.39
2018-11-28T23:27:49.418Z,99313.72
2018-11-28T23:30:54.336Z,99316.58
2018-11-28T23:33:59.242Z,99317.22
2018-11-28T23:37:05.361Z,99325.19
2018-11-28T23:40:13.591Z,99310.77
2018-11-28T23:43:18.525Z,99310.12
2018-11-28T23:46:23.459Z,99310.75
2018-11-28T23:49:28.381Z,99310.78
2018-11-28T23:52:33.278Z,99293.38
2018-11-28T23:55:38.186Z,99295.72
2018-11-28T23:58:43.095Z,99294.34
